sensor_id;sensor_type;location;lat;lon;timestamp;P1;durP1;ratioP1;P2;durP2;ratioP2
37715;SDS011;23562;50.540;12.504;2022-07-12T00:01:04;5.53;;;3.30;;
37715;SDS011;23562;50.540;12.504;2022-07-12T00:03:29;3.35;;;3.00;;
37715;SDS011;23562;50.540;12.504;2022-07-12T00:05:55;3.10;;;2.80;;
37715;SDS011;23562;50.540;12.504;2022-07-12T00:08:21;3.47;;;2.90;;
37715;SDS011;23562;50.540;12.504;2022-07-12T00:10:46;4.72;;;2.90;;
37715;SDS011;23562;50.540;12.504;2022-07-12T00:13:12;4.87;;;3.10;;
37715;SDS011;23562;50.540;12.504;2022-07-12T00:15:37;3.60;;;2.90;;
37715;SDS011;23562;50.540;12.504;2022-07-12T00:18:02;2.85;;;2.30;;
37715;SDS011;23562;50.540;12.504;2022-07-12T00:20:28;3.05;;;2.25;;
37715;SDS011;23562;50.540;12.504;2022-07-12T00:22:54;5.53;;;3.00;;
37715;SDS011;23562;50.540;12.504;2022-07-12T00:25:19;3.30;;;3.00;;
37715;SDS011;23562;50.540;12.504;2022-07-12T00:27:44;4.50;;;2.70;;
37715;SDS011;23562;50.540;12.504;2022-07-12T00:30:10;4.70;;;2.90;;
37715;SDS011;23562;50.540;12.504;2022-07-12T00:32:35;3.28;;;2.97;;
37715;SDS011;23562;50.540;12.504;2022-07-12T00:35:01;5.32;;;3.15;;
37715;SDS011;23562;50.540;12.504;2022-07-12T00:37:27;4.40;;;3.03;;
37715;SDS011;23562;50.540;12.504;2022-07-12T00:39:52;4.40;;;3.10;;
37715;SDS011;23562;50.540;12.504;2022-07-12T00:42:18;4.20;;;3.20;;
37715;SDS011;23562;50.540;12.504;2022-07-12T00:44:43;5.35;;;2.92;;
37715;SDS011;23562;50.540;12.504;2022-07-12T00:47:15;3.40;;;3.10;;
37715;SDS011;23562;50.540;12.504;2022-07-12T00:49:53;3.85;;;3.28;;
37715;SDS011;23562;50.540;12.504;2022-07-12T00:52:18;3.28;;;2.97;;
37715;SDS011;23562;50.540;12.504;2022-07-12T00:54:43;3.47;;;2.88;;
37715;SDS011;23562;50.540;12.504;2022-07-12T00:57:09;3.70;;;3.40;;
37715;SDS011;23562;50.540;12.504;2022-07-12T00:59:34;4.35;;;3.53;;
37715;SDS011;23562;50.540;12.504;2022-07-12T01:01:59;5.35;;;3.25;;
37715;SDS011;23562;50.540;12.504;2022-07-12T01:04:25;3.30;;;3.00;;
37715;SDS011;23562;50.540;12.504;2022-07-12T01:06:51;3.80;;;3.50;;
37715;SDS011;23562;50.540;12.504;2022-07-12T01:09:16;3.80;;;3.50;;
37715;SDS011;23562;50.540;12.504;2022-07-12T01:11:41;4.25;;;3.60;;
37715;SDS011;23562;50.540;12.504;2022-07-12T01:14:07;3.63;;;3.33;;
37715;SDS011;23562;50.540;12.504;2022-07-12T01:16:33;4.75;;;3.80;;
37715;SDS011;23562;50.540;12.504;2022-07-12T01:18:58;4.10;;;3.45;;
37715;SDS011;23562;50.540;12.504;2022-07-12T01:21:24;4.05;;;3.33;;
37715;SDS011;23562;50.540;12.504;2022-07-12T01:23:56;3.90;;;3.50;;
37715;SDS011;23562;50.540;12.504;2022-07-12T01:26:22;3.50;;;3.17;;
37715;SDS011;23562;50.540;12.504;2022-07-12T01:28:47;4.43;;;3.40;;
37715;SDS011;23562;50.540;12.504;2022-07-12T01:31:13;6.53;;;3.80;;
37715;SDS011;23562;50.540;12.504;2022-07-12T01:33:38;4.53;;;4.03;;
37715;SDS011;23562;50.540;12.504;2022-07-12T01:36:04;5.30;;;4.00;;
37715;SDS011;23562;50.540;12.504;2022-07-12T01:38:30;4.25;;;3.85;;
37715;SDS011;23562;50.540;12.504;2022-07-12T01:40:55;3.95;;;3.50;;
37715;SDS011;23562;50.540;12.504;2022-07-12T01:43:21;6.32;;;4.85;;
37715;SDS011;23562;50.540;12.504;2022-07-12T01:45:46;4.85;;;4.35;;
37715;SDS011;23562;50.540;12.504;2022-07-12T01:48:11;5.13;;;4.60;;
37715;SDS011;23562;50.540;12.504;2022-07-12T01:50:37;4.90;;;4.00;;
37715;SDS011;23562;50.540;12.504;2022-07-12T01:53:04;4.70;;;3.72;;
37715;SDS011;23562;50.540;12.504;2022-07-12T01:55:31;4.82;;;4.38;;
37715;SDS011;23562;50.540;12.504;2022-07-12T01:57:56;5.68;;;3.92;;
37715;SDS011;23562;50.540;12.504;2022-07-12T02:00:22;5.70;;;4.20;;
37715;SDS011;23562;50.540;12.504;2022-07-12T02:02:48;5.20;;;4.70;;
37715;SDS011;23562;50.540;12.504;2022-07-12T02:05:13;6.55;;;4.50;;
37715;SDS011;23562;50.540;12.504;2022-07-12T02:07:39;5.60;;;4.80;;
37715;SDS011;23562;50.540;12.504;2022-07-12T02:10:05;5.22;;;4.50;;
37715;SDS011;23562;50.540;12.504;2022-07-12T02:12:32;7.40;;;6.10;;
37715;SDS011;23562;50.540;12.504;2022-07-12T02:14:57;7.95;;;6.10;;
37715;SDS011;23562;50.540;12.504;2022-07-12T02:17:23;6.73;;;6.03;;
37715;SDS011;23562;50.540;12.504;2022-07-12T02:19:48;6.97;;;6.27;;
37715;SDS011;23562;50.540;12.504;2022-07-12T02:22:13;6.05;;;5.45;;
37715;SDS011;23562;50.540;12.504;2022-07-12T02:24:38;5.07;;;4.57;;
37715;SDS011;23562;50.540;12.504;2022-07-12T02:27:04;7.10;;;6.30;;
37715;SDS011;23562;50.540;12.504;2022-07-12T02:29:29;6.03;;;5.25;;
37715;SDS011;23562;50.540;12.504;2022-07-12T02:31:55;6.90;;;5.40;;
37715;SDS011;23562;50.540;12.504;2022-07-12T02:34:20;5.93;;;5.33;;
37715;SDS011;23562;50.540;12.504;2022-07-12T02:36:45;5.95;;;4.97;;
37715;SDS011;23562;50.540;12.504;2022-07-12T02:39:11;7.80;;;5.43;;
37715;SDS011;23562;50.540;12.504;2022-07-12T02:41:36;5.78;;;4.95;;
37715;SDS011;23562;50.540;12.504;2022-07-12T02:44:01;8.13;;;5.10;;
37715;SDS011;23562;50.540;12.504;2022-07-12T02:46:27;6.18;;;5.00;;
37715;SDS011;23562;50.540;12.504;2022-07-12T02:48:52;5.50;;;4.78;;
37715;SDS011;23562;50.540;12.504;2022-07-12T02:51:18;6.38;;;4.97;;
37715;SDS011;23562;50.540;12.504;2022-07-12T02:53:43;6.13;;;5.50;;
37715;SDS011;23562;50.540;12.504;2022-07-12T02:56:08;6.07;;;5.35;;
37715;SDS011;23562;50.540;12.504;2022-07-12T02:58:34;5.97;;;5.38;;
37715;SDS011;23562;50.540;12.504;2022-07-12T03:01:00;7.75;;;6.10;;
37715;SDS011;23562;50.540;12.504;2022-07-12T03:03:25;8.57;;;6.90;;
37715;SDS011;23562;50.540;12.504;2022-07-12T03:05:50;8.43;;;6.13;;
37715;SDS011;23562;50.540;12.504;2022-07-12T03:08:16;6.78;;;6.18;;
37715;SDS011;23562;50.540;12.504;2022-07-12T03:10:41;5.95;;;5.35;;
37715;SDS011;23562;50.540;12.504;2022-07-12T03:13:06;7.53;;;6.28;;
37715;SDS011;23562;50.540;12.504;2022-07-12T03:15:31;10.23;;;8.97;;
37715;SDS011;23562;50.540;12.504;2022-07-12T03:17:58;11.20;;;8.90;;
37715;SDS011;23562;50.540;12.504;2022-07-12T03:20:25;11.43;;;9.27;;
37715;SDS011;23562;50.540;12.504;2022-07-12T03:22:51;10.90;;;9.30;;
37715;SDS011;23562;50.540;12.504;2022-07-12T03:25:17;9.65;;;8.63;;
37715;SDS011;23562;50.540;12.504;2022-07-12T03:27:42;10.20;;;8.43;;
37715;SDS011;23562;50.540;12.504;2022-07-12T03:30:08;8.30;;;7.50;;
37715;SDS011;23562;50.540;12.504;2022-07-12T03:32:34;9.82;;;8.73;;
37715;SDS011;23562;50.540;12.504;2022-07-12T03:35:00;10.40;;;8.40;;
37715;SDS011;23562;50.540;12.504;2022-07-12T03:37:25;8.25;;;7.43;;
37715;SDS011;23562;50.540;12.504;2022-07-12T03:39:51;9.95;;;7.97;;
37715;SDS011;23562;50.540;12.504;2022-07-12T03:42:18;14.02;;;12.52;;
37715;SDS011;23562;50.540;12.504;2022-07-12T03:44:43;12.38;;;10.95;;
37715;SDS011;23562;50.540;12.504;2022-07-12T03:47:08;15.52;;;11.82;;
37715;SDS011;23562;50.540;12.504;2022-07-12T03:49:34;14.85;;;11.82;;
37715;SDS011;23562;50.540;12.504;2022-07-12T03:51:59;13.23;;;11.80;;
37715;SDS011;23562;50.540;12.504;2022-07-12T03:54:24;13.43;;;11.05;;
37715;SDS011;23562;50.540;12.504;2022-07-12T03:56:49;13.10;;;10.15;;
37715;SDS011;23562;50.540;12.504;2022-07-12T03:59:33;13.48;;;10.65;;
37715;SDS011;23562;50.540;12.504;2022-07-12T04:01:59;12.63;;;11.30;;
37715;SDS011;23562;50.540;12.504;2022-07-12T04:04:24;14.10;;;12.65;;
37715;SDS011;23562;50.540;12.504;2022-07-12T04:06:50;12.20;;;10.90;;
37715;SDS011;23562;50.540;12.504;2022-07-12T04:09:15;13.50;;;11.65;;
37715;SDS011;23562;50.540;12.504;2022-07-12T04:11:41;15.85;;;12.27;;
37715;SDS011;23562;50.540;12.504;2022-07-12T04:14:06;13.60;;;12.15;;
37715;SDS011;23562;50.540;12.504;2022-07-12T04:16:32;13.73;;;12.32;;
37715;SDS011;23562;50.540;12.504;2022-07-12T04:18:57;18.25;;;15.23;;
37715;SDS011;23562;50.540;12.504;2022-07-12T04:21:22;19.20;;;17.13;;
37715;SDS011;23562;50.540;12.504;2022-07-12T04:23:48;17.75;;;15.90;;
37715;SDS011;23562;50.540;12.504;2022-07-12T04:26:13;18.23;;;15.32;;
37715;SDS011;23562;50.540;12.504;2022-07-12T04:28:39;16.45;;;14.23;;
37715;SDS011;23562;50.540;12.504;2022-07-12T04:31:04;16.13;;;14.38;;
37715;SDS011;23562;50.540;12.504;2022-07-12T04:33:30;18.02;;;14.60;;
37715;SDS011;23562;50.540;12.504;2022-07-12T04:35:55;18.15;;;16.05;;
37715;SDS011;23562;50.540;12.504;2022-07-12T04:38:20;18.60;;;15.57;;
37715;SDS011;23562;50.540;12.504;2022-07-12T04:40:45;16.35;;;14.65;;
37715;SDS011;23562;50.540;12.504;2022-07-12T04:43:11;14.40;;;12.07;;
37715;SDS011;23562;50.540;12.504;2022-07-12T04:45:36;12.50;;;11.20;;
37715;SDS011;23562;50.540;12.504;2022-07-12T04:48:01;14.20;;;12.23;;
37715;SDS011;23562;50.540;12.504;2022-07-12T04:50:27;12.27;;;10.70;;
37715;SDS011;23562;50.540;12.504;2022-07-12T04:52:52;11.85;;;10.45;;
37715;SDS011;23562;50.540;12.504;2022-07-12T04:55:17;11.73;;;10.10;;
37715;SDS011;23562;50.540;12.504;2022-07-12T04:57:43;12.18;;;9.73;;
37715;SDS011;23562;50.540;12.504;2022-07-12T05:00:08;13.00;;;10.33;;
37715;SDS011;23562;50.540;12.504;2022-07-12T05:02:34;11.45;;;10.25;;
37715;SDS011;23562;50.540;12.504;2022-07-12T05:04:59;15.68;;;11.80;;
37715;SDS011;23562;50.540;12.504;2022-07-12T05:07:25;13.65;;;12.20;;
37715;SDS011;23562;50.540;12.504;2022-07-12T05:09:50;14.32;;;12.82;;
37715;SDS011;23562;50.540;12.504;2022-07-12T05:12:16;14.43;;;12.63;;
37715;SDS011;23562;50.540;12.504;2022-07-12T05:14:41;15.30;;;13.80;;
37715;SDS011;23562;50.540;12.504;2022-07-12T05:17:07;17.55;;;15.15;;
37715;SDS011;23562;50.540;12.504;2022-07-12T05:19:32;16.05;;;14.35;;
37715;SDS011;23562;50.540;12.504;2022-07-12T05:21:57;15.35;;;13.07;;
37715;SDS011;23562;50.540;12.504;2022-07-12T05:24:22;16.20;;;13.73;;
37715;SDS011;23562;50.540;12.504;2022-07-12T05:26:48;16.60;;;14.90;;
37715;SDS011;23562;50.540;12.504;2022-07-12T05:29:13;17.60;;;15.70;;
37715;SDS011;23562;50.540;12.504;2022-07-12T05:31:39;21.00;;;17.05;;
37715;SDS011;23562;50.540;12.504;2022-07-12T05:34:04;19.53;;;17.50;;
37715;SDS011;23562;50.540;12.504;2022-07-12T05:36:29;18.05;;;15.80;;
37715;SDS011;23562;50.540;12.504;2022-07-12T05:38:55;17.55;;;15.75;;
37715;SDS011;23562;50.540;12.504;2022-07-12T05:41:20;17.90;;;16.10;;
37715;SDS011;23562;50.540;12.504;2022-07-12T05:43:46;17.88;;;15.45;;
37715;SDS011;23562;50.540;12.504;2022-07-12T05:46:11;15.75;;;14.25;;
37715;SDS011;23562;50.540;12.504;2022-07-12T05:48:37;17.00;;;15.20;;
37715;SDS011;23562;50.540;12.504;2022-07-12T05:51:03;20.80;;;16.60;;
37715;SDS011;23562;50.540;12.504;2022-07-12T05:53:47;16.40;;;14.70;;
37715;SDS011;23562;50.540;12.504;2022-07-12T05:56:12;19.13;;;16.67;;
37715;SDS011;23562;50.540;12.504;2022-07-12T05:58:38;18.70;;;16.80;;
37715;SDS011;23562;50.540;12.504;2022-07-12T06:01:04;19.33;;;17.10;;
37715;SDS011;23562;50.540;12.504;2022-07-12T06:03:29;17.75;;;15.95;;
37715;SDS011;23562;50.540;12.504;2022-07-12T06:05:54;16.67;;;14.70;;
37715;SDS011;23562;50.540;12.504;2022-07-12T06:08:19;17.25;;;15.23;;
37715;SDS011;23562;50.540;12.504;2022-07-12T06:10:45;19.00;;;16.25;;
37715;SDS011;23562;50.540;12.504;2022-07-12T06:13:10;17.40;;;15.63;;
37715;SDS011;23562;50.540;12.504;2022-07-12T06:18:36;20.10;;;15.75;;
37715;SDS011;23562;50.540;12.504;2022-07-12T06:21:02;15.80;;;14.23;;
37715;SDS011;23562;50.540;12.504;2022-07-12T06:23:27;15.25;;;13.65;;
37715;SDS011;23562;50.540;12.504;2022-07-12T06:25:52;15.10;;;13.45;;
37715;SDS011;23562;50.540;12.504;2022-07-12T06:28:18;14.80;;;12.80;;
37715;SDS011;23562;50.540;12.504;2022-07-12T06:30:43;15.40;;;13.70;;
37715;SDS011;23562;50.540;12.504;2022-07-12T06:33:09;13.95;;;12.55;;
37715;SDS011;23562;50.540;12.504;2022-07-12T06:35:38;15.63;;;14.13;;
37715;SDS011;23562;50.540;12.504;2022-07-12T06:38:03;15.05;;;13.20;;
37715;SDS011;23562;50.540;12.504;2022-07-12T06:40:29;14.93;;;12.82;;
37715;SDS011;23562;50.540;12.504;2022-07-12T06:42:54;13.77;;;12.23;;
37715;SDS011;23562;50.540;12.504;2022-07-12T06:48:26;15.55;;;13.95;;
37715;SDS011;23562;50.540;12.504;2022-07-12T06:50:51;15.00;;;13.60;;
37715;SDS011;23562;50.540;12.504;2022-07-12T06:53:23;15.27;;;13.60;;
37715;SDS011;23562;50.540;12.504;2022-07-12T06:55:51;14.88;;;13.48;;
37715;SDS011;23562;50.540;12.504;2022-07-12T06:58:16;15.63;;;14.13;;
37715;SDS011;23562;50.540;12.504;2022-07-12T07:00:42;15.70;;;13.77;;
37715;SDS011;23562;50.540;12.504;2022-07-12T07:03:10;13.82;;;12.43;;
37715;SDS011;23562;50.540;12.504;2022-07-12T07:08:27;16.45;;;12.75;;
37715;SDS011;23562;50.540;12.504;2022-07-12T07:10:59;12.93;;;11.73;;
37715;SDS011;23562;50.540;12.504;2022-07-12T07:13:26;14.27;;;11.57;;
37715;SDS011;23562;50.540;12.504;2022-07-12T07:18:40;12.80;;;11.48;;
37715;SDS011;23562;50.540;12.504;2022-07-12T07:21:05;13.40;;;12.00;;
37715;SDS011;23562;50.540;12.504;2022-07-12T07:23:31;12.45;;;11.05;;
37715;SDS011;23562;50.540;12.504;2022-07-12T07:26:00;11.98;;;10.70;;
37715;SDS011;23562;50.540;12.504;2022-07-12T07:28:25;13.57;;;11.40;;
37715;SDS011;23562;50.540;12.504;2022-07-12T07:33:37;12.43;;;11.23;;
37715;SDS011;23562;50.540;12.504;2022-07-12T07:36:02;12.63;;;11.35;;
37715;SDS011;23562;50.540;12.504;2022-07-12T07:38:27;11.40;;;10.23;;
37715;SDS011;23562;50.540;12.504;2022-07-12T07:40:53;9.95;;;9.02;;
37715;SDS011;23562;50.540;12.504;2022-07-12T07:43:18;9.48;;;8.57;;
37715;SDS011;23562;50.540;12.504;2022-07-12T07:45:45;9.17;;;8.27;;
37715;SDS011;23562;50.540;12.504;2022-07-12T07:48:10;9.43;;;8.23;;
37715;SDS011;23562;50.540;12.504;2022-07-12T07:50:35;9.63;;;8.63;;
37715;SDS011;23562;50.540;12.504;2022-07-12T07:53:01;10.63;;;8.02;;
37715;SDS011;23562;50.540;12.504;2022-07-12T07:55:26;8.93;;;7.82;;
37715;SDS011;23562;50.540;12.504;2022-07-12T07:57:52;10.10;;;7.55;;
37715;SDS011;23562;50.540;12.504;2022-07-12T08:00:17;8.43;;;7.63;;
37715;SDS011;23562;50.540;12.504;2022-07-12T08:02:42;8.38;;;7.57;;
37715;SDS011;23562;50.540;12.504;2022-07-12T08:05:08;7.40;;;6.70;;
37715;SDS011;23562;50.540;12.504;2022-07-12T08:07:33;8.32;;;5.35;;
37715;SDS011;23562;50.540;12.504;2022-07-12T08:09:58;7.13;;;6.43;;
37715;SDS011;23562;50.540;12.504;2022-07-12T08:12:24;7.33;;;6.57;;
37715;SDS011;23562;50.540;12.504;2022-07-12T08:14:49;9.35;;;5.50;;
37715;SDS011;23562;50.540;12.504;2022-07-12T08:17:14;9.00;;;6.07;;
37715;SDS011;23562;50.540;12.504;2022-07-12T08:19:39;6.40;;;5.80;;
37715;SDS011;23562;50.540;12.504;2022-07-12T08:22:05;6.70;;;6.07;;
37715;SDS011;23562;50.540;12.504;2022-07-12T08:24:30;5.95;;;5.30;;
37715;SDS011;23562;50.540;12.504;2022-07-12T08:26:55;7.22;;;5.70;;
37715;SDS011;23562;50.540;12.504;2022-07-12T08:29:21;9.05;;;6.97;;
37715;SDS011;23562;50.540;12.504;2022-07-12T08:31:46;8.23;;;5.80;;
37715;SDS011;23562;50.540;12.504;2022-07-12T08:34:12;6.45;;;5.88;;
37715;SDS011;23562;50.540;12.504;2022-07-12T08:36:37;9.23;;;6.65;;
37715;SDS011;23562;50.540;12.504;2022-07-12T08:39:02;6.87;;;6.17;;
37715;SDS011;23562;50.540;12.504;2022-07-12T08:41:28;8.38;;;6.85;;
37715;SDS011;23562;50.540;12.504;2022-07-12T08:43:54;7.00;;;6.30;;
37715;SDS011;23562;50.540;12.504;2022-07-12T08:46:20;10.00;;;6.43;;
37715;SDS011;23562;50.540;12.504;2022-07-12T08:48:45;7.30;;;6.07;;
37715;SDS011;23562;50.540;12.504;2022-07-12T08:51:17;6.73;;;5.93;;
37715;SDS011;23562;50.540;12.504;2022-07-12T08:53:44;10.70;;;5.40;;
37715;SDS011;23562;50.540;12.504;2022-07-12T08:59:17;9.43;;;5.75;;
37715;SDS011;23562;50.540;12.504;2022-07-12T09:01:52;6.13;;;5.53;;
37715;SDS011;23562;50.540;12.504;2022-07-12T09:04:20;6.30;;;5.05;;
37715;SDS011;23562;50.540;12.504;2022-07-12T09:06:47;5.22;;;4.72;;
37715;SDS011;23562;50.540;12.504;2022-07-12T09:09:29;5.55;;;5.05;;
37715;SDS011;23562;50.540;12.504;2022-07-12T09:11:57;5.88;;;4.53;;
37715;SDS011;23562;50.540;12.504;2022-07-12T09:14:22;6.38;;;4.03;;
37715;SDS011;23562;50.540;12.504;2022-07-12T09:16:58;6.60;;;4.28;;
37715;SDS011;23562;50.540;12.504;2022-07-12T09:19:28;5.05;;;4.43;;
37715;SDS011;23562;50.540;12.504;2022-07-12T09:21:54;5.10;;;4.60;;
37715;SDS011;23562;50.540;12.504;2022-07-12T09:24:20;5.07;;;4.47;;
37715;SDS011;23562;50.540;12.504;2022-07-12T09:26:52;3.50;;;3.20;;
37715;SDS011;23562;50.540;12.504;2022-07-12T09:29:24;4.05;;;3.00;;
37715;SDS011;23562;50.540;12.504;2022-07-12T09:31:50;3.83;;;2.60;;
37715;SDS011;23562;50.540;12.504;2022-07-12T09:34:36;4.10;;;3.30;;
37715;SDS011;23562;50.540;12.504;2022-07-12T09:37:20;6.20;;;3.80;;
37715;SDS011;23562;50.540;12.504;2022-07-12T09:39:47;4.55;;;3.78;;
37715;SDS011;23562;50.540;12.504;2022-07-12T09:45:12;4.57;;;3.50;;
37715;SDS011;23562;50.540;12.504;2022-07-12T09:47:38;4.30;;;3.40;;
37715;SDS011;23562;50.540;12.504;2022-07-12T09:50:04;4.03;;;3.50;;
37715;SDS011;23562;50.540;12.504;2022-07-12T09:52:32;4.30;;;3.20;;
37715;SDS011;23562;50.540;12.504;2022-07-12T09:54:59;3.42;;;2.20;;
37715;SDS011;23562;50.540;12.504;2022-07-12T09:57:29;3.35;;;2.10;;
37715;SDS011;23562;50.540;12.504;2022-07-12T09:59:56;2.53;;;2.08;;
37715;SDS011;23562;50.540;12.504;2022-07-12T10:02:23;2.78;;;2.58;;
37715;SDS011;23562;50.540;12.504;2022-07-12T10:04:49;3.78;;;2.70;;
37715;SDS011;23562;50.540;12.504;2022-07-12T10:07:15;3.03;;;2.50;;
37715;SDS011;23562;50.540;12.504;2022-07-12T10:09:44;2.65;;;2.15;;
37715;SDS011;23562;50.540;12.504;2022-07-12T10:12:12;3.80;;;2.40;;
37715;SDS011;23562;50.540;12.504;2022-07-12T10:14:41;2.92;;;2.10;;
37715;SDS011;23562;50.540;12.504;2022-07-12T10:17:08;2.65;;;2.20;;
37715;SDS011;23562;50.540;12.504;2022-07-12T10:19:38;3.40;;;2.10;;
37715;SDS011;23562;50.540;12.504;2022-07-12T10:22:06;3.38;;;1.92;;
37715;SDS011;23562;50.540;12.504;2022-07-12T10:29:46;4.13;;;2.40;;
37715;SDS011;23562;50.540;12.504;2022-07-12T10:35:01;3.05;;;2.30;;
37715;SDS011;23562;50.540;12.504;2022-07-12T10:37:31;3.45;;;2.10;;
37715;SDS011;23562;50.540;12.504;2022-07-12T10:40:17;5.38;;;2.00;;
37715;SDS011;23562;50.540;12.504;2022-07-12T10:45:31;5.63;;;2.17;;
37715;SDS011;23562;50.540;12.504;2022-07-12T10:47:58;2.25;;;1.70;;
37715;SDS011;23562;50.540;12.504;2022-07-12T11:01:25;1.63;;;1.52;;
37715;SDS011;23562;50.540;12.504;2022-07-12T11:03:52;3.50;;;1.77;;
37715;SDS011;23562;50.540;12.504;2022-07-12T11:06:23;4.57;;;2.13;;
37715;SDS011;23562;50.540;12.504;2022-07-12T11:08:53;2.67;;;2.00;;
37715;SDS011;23562;50.540;12.504;2022-07-12T11:11:27;2.20;;;1.88;;
37715;SDS011;23562;50.540;12.504;2022-07-12T11:13:54;3.58;;;1.85;;
37715;SDS011;23562;50.540;12.504;2022-07-12T11:16:20;2.90;;;1.70;;
37715;SDS011;23562;50.540;12.504;2022-07-12T11:18:46;2.35;;;1.70;;
37715;SDS011;23562;50.540;12.504;2022-07-12T11:21:12;2.67;;;1.85;;
37715;SDS011;23562;50.540;12.504;2022-07-12T11:23:38;2.72;;;1.70;;
37715;SDS011;23562;50.540;12.504;2022-07-12T11:26:06;3.13;;;1.70;;
37715;SDS011;23562;50.540;12.504;2022-07-12T11:28:34;2.92;;;1.55;;
37715;SDS011;23562;50.540;12.504;2022-07-12T11:31:10;4.72;;;1.70;;
37715;SDS011;23562;50.540;12.504;2022-07-12T11:33:36;2.83;;;1.63;;
37715;SDS011;23562;50.540;12.504;2022-07-12T11:36:04;2.20;;;1.70;;
37715;SDS011;23562;50.540;12.504;2022-07-12T11:38:35;1.75;;;1.40;;
37715;SDS011;23562;50.540;12.504;2022-07-12T11:41:02;2.63;;;1.50;;
37715;SDS011;23562;50.540;12.504;2022-07-12T11:43:28;4.47;;;1.58;;
37715;SDS011;23562;50.540;12.504;2022-07-12T11:46:03;2.75;;;1.45;;
37715;SDS011;23562;50.540;12.504;2022-07-12T11:48:29;2.55;;;1.40;;
37715;SDS011;23562;50.540;12.504;2022-07-12T11:50:59;2.40;;;1.73;;
37715;SDS011;23562;50.540;12.504;2022-07-12T11:53:26;3.63;;;1.30;;
37715;SDS011;23562;50.540;12.504;2022-07-12T11:55:52;2.13;;;1.55;;
37715;SDS011;23562;50.540;12.504;2022-07-12T11:58:20;2.80;;;1.50;;
37715;SDS011;23562;50.540;12.504;2022-07-12T12:00:47;3.00;;;1.25;;
37715;SDS011;23562;50.540;12.504;2022-07-12T12:03:15;4.35;;;1.50;;
37715;SDS011;23562;50.540;12.504;2022-07-12T12:05:42;3.08;;;1.52;;
37715;SDS011;23562;50.540;12.504;2022-07-12T12:08:08;3.15;;;1.85;;
37715;SDS011;23562;50.540;12.504;2022-07-12T12:10:35;3.20;;;1.80;;
37715;SDS011;23562;50.540;12.504;2022-07-12T12:13:01;4.18;;;1.70;;
37715;SDS011;23562;50.540;12.504;2022-07-12T12:15:28;2.25;;;1.33;;
37715;SDS011;23562;50.540;12.504;2022-07-12T12:17:57;3.60;;;1.42;;
37715;SDS011;23562;50.540;12.504;2022-07-12T12:20:36;3.55;;;1.20;;
37715;SDS011;23562;50.540;12.504;2022-07-12T12:23:03;5.47;;;1.42;;
37715;SDS011;23562;50.540;12.504;2022-07-12T12:25:31;2.25;;;1.40;;
37715;SDS011;23562;50.540;12.504;2022-07-12T12:27:58;3.63;;;1.50;;
37715;SDS011;23562;50.540;12.504;2022-07-12T12:30:26;4.32;;;1.17;;
37715;SDS011;23562;50.540;12.504;2022-07-12T12:32:53;2.05;;;1.40;;
37715;SDS011;23562;50.540;12.504;2022-07-12T12:35:20;3.08;;;1.33;;
37715;SDS011;23562;50.540;12.504;2022-07-12T12:37:51;4.65;;;1.67;;
37715;SDS011;23562;50.540;12.504;2022-07-12T12:40:26;2.95;;;1.50;;
37715;SDS011;23562;50.540;12.504;2022-07-12T12:43:11;2.63;;;1.33;;
37715;SDS011;23562;50.540;12.504;2022-07-12T12:46:11;3.10;;;1.40;;
37715;SDS011;23562;50.540;12.504;2022-07-12T12:48:30;3.10;;;1.35;;
37715;SDS011;23562;50.540;12.504;2022-07-12T12:51:03;2.88;;;1.30;;
37715;SDS011;23562;50.540;12.504;2022-07-12T12:53:31;2.00;;;1.40;;
37715;SDS011;23562;50.540;12.504;2022-07-12T12:55:56;3.42;;;1.52;;
37715;SDS011;23562;50.540;12.504;2022-07-12T12:58:25;1.88;;;1.38;;
37715;SDS011;23562;50.540;12.504;2022-07-12T13:00:52;4.55;;;1.52;;
37715;SDS011;23562;50.540;12.504;2022-07-12T13:03:19;1.80;;;1.30;;
37715;SDS011;23562;50.540;12.504;2022-07-12T13:05:46;5.57;;;1.40;;
37715;SDS011;23562;50.540;12.504;2022-07-12T13:08:13;1.77;;;1.40;;
37715;SDS011;23562;50.540;12.504;2022-07-12T13:10:40;1.80;;;1.30;;
37715;SDS011;23562;50.540;12.504;2022-07-12T13:13:06;2.80;;;1.40;;
37715;SDS011;23562;50.540;12.504;2022-07-12T13:15:33;2.58;;;1.58;;
37715;SDS011;23562;50.540;12.504;2022-07-12T13:17:58;2.42;;;1.27;;
37715;SDS011;23562;50.540;12.504;2022-07-12T13:20:24;3.45;;;1.42;;
37715;SDS011;23562;50.540;12.504;2022-07-12T13:22:51;2.53;;;1.30;;
37715;SDS011;23562;50.540;12.504;2022-07-12T13:25:17;3.45;;;1.23;;
37715;SDS011;23562;50.540;12.504;2022-07-12T13:27:43;2.47;;;1.57;;
37715;SDS011;23562;50.540;12.504;2022-07-12T13:30:09;3.50;;;1.48;;
37715;SDS011;23562;50.540;12.504;2022-07-12T13:32:36;3.95;;;1.10;;
37715;SDS011;23562;50.540;12.504;2022-07-12T13:35:03;2.15;;;1.10;;
37715;SDS011;23562;50.540;12.504;2022-07-12T13:37:29;1.92;;;1.08;;
37715;SDS011;23562;50.540;12.504;2022-07-12T13:39:55;4.57;;;1.20;;
37715;SDS011;23562;50.540;12.504;2022-07-12T13:45:08;2.10;;;1.30;;
37715;SDS011;23562;50.540;12.504;2022-07-12T13:47:36;3.30;;;1.20;;
37715;SDS011;23562;50.540;12.504;2022-07-12T13:50:02;2.72;;;1.08;;
37715;SDS011;23562;50.540;12.504;2022-07-12T13:52:28;2.13;;;1.27;;
37715;SDS011;23562;50.540;12.504;2022-07-12T13:54:53;1.80;;;1.20;;
37715;SDS011;23562;50.540;12.504;2022-07-12T13:57:18;1.88;;;1.13;;
37715;SDS011;23562;50.540;12.504;2022-07-12T13:59:44;1.27;;;1.10;;
37715;SDS011;23562;50.540;12.504;2022-07-12T14:02:10;3.53;;;1.30;;
37715;SDS011;23562;50.540;12.504;2022-07-12T14:04:35;3.00;;;1.33;;
37715;SDS011;23562;50.540;12.504;2022-07-12T14:07:00;4.37;;;1.27;;
37715;SDS011;23562;50.540;12.504;2022-07-12T14:09:26;2.25;;;1.20;;
37715;SDS011;23562;50.540;12.504;2022-07-12T14:11:51;1.83;;;1.20;;
37715;SDS011;23562;50.540;12.504;2022-07-12T14:14:16;2.45;;;1.20;;
37715;SDS011;23562;50.540;12.504;2022-07-12T14:17:02;2.88;;;1.15;;
37715;SDS011;23562;50.540;12.504;2022-07-12T14:19:27;2.42;;;1.20;;
37715;SDS011;23562;50.540;12.504;2022-07-12T14:21:52;3.63;;;1.27;;
37715;SDS011;23562;50.540;12.504;2022-07-12T14:24:17;2.43;;;1.50;;
37715;SDS011;23562;50.540;12.504;2022-07-12T14:26:43;2.92;;;1.35;;
37715;SDS011;23562;50.540;12.504;2022-07-12T14:29:08;4.00;;;1.20;;
37715;SDS011;23562;50.540;12.504;2022-07-12T14:31:33;1.60;;;1.10;;
37715;SDS011;23562;50.540;12.504;2022-07-12T14:33:59;1.77;;;1.05;;
37715;SDS011;23562;50.540;12.504;2022-07-12T14:36:24;2.97;;;1.30;;
37715;SDS011;23562;50.540;12.504;2022-07-12T14:38:49;2.50;;;1.20;;
37715;SDS011;23562;50.540;12.504;2022-07-12T14:41:14;4.50;;;1.10;;
37715;SDS011;23562;50.540;12.504;2022-07-12T14:43:40;3.88;;;1.10;;
37715;SDS011;23562;50.540;12.504;2022-07-12T14:46:05;1.10;;;1.10;;
37715;SDS011;23562;50.540;12.504;2022-07-12T14:48:30;1.40;;;1.20;;
37715;SDS011;23562;50.540;12.504;2022-07-12T14:50:55;3.77;;;1.10;;
37715;SDS011;23562;50.540;12.504;2022-07-12T14:53:21;2.38;;;1.00;;
37715;SDS011;23562;50.540;12.504;2022-07-12T14:55:47;2.35;;;1.30;;
37715;SDS011;23562;50.540;12.504;2022-07-12T14:58:12;3.75;;;1.20;;
37715;SDS011;23562;50.540;12.504;2022-07-12T15:00:37;4.23;;;1.10;;
37715;SDS011;23562;50.540;12.504;2022-07-12T15:03:02;1.87;;;1.13;;
37715;SDS011;23562;50.540;12.504;2022-07-12T15:05:28;2.05;;;0.90;;
37715;SDS011;23562;50.540;12.504;2022-07-12T15:07:54;4.22;;;1.08;;
37715;SDS011;23562;50.540;12.504;2022-07-12T15:10:19;1.98;;;0.90;;